createdAt,value
2022-08-26T00:01:54.655Z,6.47
2022-08-26T00:04:25.109Z,6.50
2022-08-26T00:06:55.699Z,5.87
2022-08-26T00:09:24.952Z,5.53
2022-08-26T00:11:53.848Z,6.73
2022-08-26T00:14:27.059Z,7.80
2022-08-26T00:16:56.706Z,6.03
2022-08-26T00:19:23.694Z,6.47
2022-08-26T00:21:51.307Z,8.70
2022-08-26T00:24:20.675Z,8.30
2022-08-26T00:26:49.406Z,8.20
2022-08-26T00:29:17.017Z,6.07
2022-08-26T00:31:45.127Z,5.77
2022-08-26T00:34:14.293Z,7.27
2022-08-26T00:36:43.442Z,7.23
2022-08-26T00:39:11.044Z,7.43
2022-08-26T00:41:40.996Z,6.83
2022-08-26T00:44:11.093Z,6.40
2022-08-26T00:46:48.779Z,6.67
2022-08-26T00:49:44.385Z,7.10
2022-08-26T00:52:17.533Z,6.03
2022-08-26T00:54:59.535Z,6.43
2022-08-26T00:57:27.043Z,6.97
2022-08-26T01:00:00.372Z,7.23
2022-08-26T01:02:28.895Z,5.43
2022-08-26T01:05:03.327Z,8.27
2022-08-26T01:07:33.132Z,8.50
2022-08-26T01:10:08.322Z,7.83
2022-08-26T01:12:42.423Z,6.70
2022-08-26T01:15:18.931Z,7.10
2022-08-26T01:17:46.264Z,7.47
2022-08-26T01:20:51.210Z,7.30
2022-08-26T01:23:18.520Z,5.93
2022-08-26T01:26:00.583Z,5.63
2022-08-26T01:28:32.575Z,5.83
2022-08-26T01:31:02.465Z,6.00
2022-08-26T01:33:42.369Z,6.20
2022-08-26T01:36:11.745Z,5.93
2022-08-26T01:38:40.888Z,7.27
2022-08-26T01:41:19.658Z,5.50
2022-08-26T01:43:53.271Z,6.00
2022-08-26T01:46:23.620Z,6.80
2022-08-26T01:48:55.009Z,6.57
2022-08-26T01:51:27.327Z,5.90
2022-08-26T01:53:55.088Z,6.10
2022-08-26T01:56:23.890Z,5.63
2022-08-26T01:59:02.322Z,5.20
2022-08-26T02:01:31.401Z,8.90
2022-08-26T02:04:07.440Z,7.53
2022-08-26T02:06:40.111Z,7.20
2022-08-26T02:09:07.650Z,6.57
2022-08-26T02:11:36.814Z,5.63
2022-08-26T02:14:15.560Z,6.33
2022-08-26T02:16:48.684Z,6.00
2022-08-26T02:19:22.342Z,7.87
2022-08-26T02:21:52.973Z,7.40
2022-08-26T02:24:27.526Z,7.47
2022-08-26T02:26:57.692Z,6.03
2022-08-26T02:29:43.747Z,6.93
2022-08-26T02:32:11.693Z,10.03
2022-08-26T02:34:39.101Z,8.77
2022-08-26T02:37:11.191Z,8.90
2022-08-26T02:39:41.688Z,7.90
2022-08-26T02:42:09.572Z,8.50
2022-08-26T02:44:36.820Z,6.17
2022-08-26T02:47:04.313Z,6.20
2022-08-26T02:49:32.272Z,6.90
2022-08-26T02:52:00.808Z,7.93
2022-08-26T02:54:29.296Z,6.53
2022-08-26T02:56:57.041Z,6.20
2022-08-26T02:59:24.927Z,8.13
2022-08-26T03:01:52.956Z,6.40
2022-08-26T03:04:25.723Z,6.47
2022-08-26T03:06:53.754Z,7.10
2022-08-26T03:09:23.511Z,10.70
2022-08-26T03:11:51.924Z,8.43
2022-08-26T03:14:18.928Z,9.90
2022-08-26T03:16:48.423Z,9.03
2022-08-26T03:19:15.606Z,6.80
2022-08-26T03:21:44.663Z,7.00
2022-08-26T03:24:14.660Z,8.27
2022-08-26T03:26:52.011Z,7.00
2022-08-26T03:29:40.063Z,8.00
2022-08-26T03:32:08.140Z,7.63
2022-08-26T03:34:36.432Z,6.57
2022-08-26T03:37:03.417Z,6.93
2022-08-26T03:39:30.983Z,7.73
2022-08-26T03:41:58.884Z,9.47
2022-08-26T03:44:26.624Z,7.63
2022-08-26T03:46:54.502Z,8.03
2022-08-26T03:49:22.010Z,6.90
2022-08-26T03:51:49.109Z,7.00
2022-08-26T03:54:17.390Z,7.67
2022-08-26T03:56:46.513Z,6.43
2022-08-26T03:59:13.960Z,7.53
2022-08-26T04:01:40.959Z,7.00
2022-08-26T04:04:08.133Z,6.50
2022-08-26T04:06:43.228Z,6.50
2022-08-26T04:09:19.715Z,7.90
2022-08-26T04:11:50.509Z,6.23
2022-08-26T04:14:24.435Z,6.90
2022-08-26T04:16:55.335Z,6.17
2022-08-26T04:19:24.984Z,5.50
2022-08-26T04:21:53.574Z,5.83
2022-08-26T04:24:25.192Z,6.10
2022-08-26T04:26:52.612Z,8.30
2022-08-26T04:29:23.988Z,7.60
2022-08-26T04:31:55.713Z,9.77
2022-08-26T04:34:28.570Z,7.40
2022-08-26T04:36:57.765Z,7.03
2022-08-26T04:39:25.419Z,7.37
2022-08-26T04:41:55.522Z,6.40
2022-08-26T04:44:25.640Z,8.37
2022-08-26T04:46:53.466Z,9.27
2022-08-26T04:49:22.951Z,8.87
2022-08-26T04:51:53.429Z,8.07
2022-08-26T04:54:20.282Z,7.60
2022-08-26T04:56:49.482Z,7.07
2022-08-26T04:59:18.051Z,7.00
2022-08-26T05:01:50.196Z,9.03
2022-08-26T05:04:20.283Z,8.43
2022-08-26T05:06:48.802Z,9.90
2022-08-26T05:09:18.281Z,6.87
2022-08-26T05:11:48.335Z,7.20
2022-08-26T05:14:16.183Z,9.53
2022-08-26T05:16:43.256Z,11.23
2022-08-26T05:19:11.236Z,9.60
2022-08-26T05:21:38.653Z,10.40
2022-08-26T05:24:06.620Z,9.70
2022-08-26T05:26:33.960Z,10.60
2022-08-26T05:29:01.416Z,9.37
2022-08-26T05:31:34.552Z,8.40
2022-08-26T05:34:04.571Z,8.27
2022-08-26T05:36:35.066Z,9.70
2022-08-26T05:39:04.571Z,10.53
2022-08-26T05:41:38.464Z,10.03
2022-08-26T05:44:12.710Z,10.47
2022-08-26T05:46:42.420Z,10.27
2022-08-26T05:49:13.179Z,12.03
2022-08-26T05:51:45.176Z,12.03
2022-08-26T05:54:14.336Z,13.10
2022-08-26T05:56:48.911Z,12.67
2022-08-26T05:59:16.194Z,13.07
2022-08-26T06:01:48.299Z,12.20
2022-08-26T06:04:15.259Z,13.63
2022-08-26T06:06:43.170Z,15.27
2022-08-26T06:09:12.059Z,17.23
2022-08-26T06:11:41.846Z,16.73
2022-08-26T06:14:10.503Z,15.10
2022-08-26T06:16:43.810Z,17.60
2022-08-26T06:19:15.357Z,27.53
2022-08-26T06:21:54.184Z,38.90
2022-08-26T06:24:41.122Z,46.63
2022-08-26T06:27:13.318Z,46.53
2022-08-26T06:29:40.642Z,46.77
2022-08-26T06:32:08.680Z,53.60
2022-08-26T06:34:36.026Z,51.93
2022-08-26T06:37:03.919Z,51.90
2022-08-26T06:39:33.328Z,53.43
2022-08-26T06:42:01.133Z,53.90
2022-08-26T06:44:30.470Z,52.67
2022-08-26T06:46:57.401Z,55.83
2022-08-26T06:49:27.240Z,52.30
2022-08-26T06:51:58.365Z,51.20
2022-08-26T06:54:27.617Z,55.80
2022-08-26T06:56:56.746Z,52.57
2022-08-26T06:59:24.359Z,55.40
2022-08-26T07:01:52.219Z,52.73
2022-08-26T07:04:21.883Z,53.87
2022-08-26T07:06:52.875Z,50.60
2022-08-26T07:09:23.515Z,52.27
2022-08-26T07:11:56.305Z,54.97
2022-08-26T07:14:27.539Z,52.13
2022-08-26T07:16:55.713Z,51.50
2022-08-26T07:19:30.032Z,49.20
2022-08-26T07:22:02.178Z,49.13
2022-08-26T07:24:35.306Z,47.60
2022-08-26T07:27:07.304Z,50.33
2022-08-26T07:29:37.882Z,47.47
2022-08-26T07:32:05.814Z,49.80
2022-08-26T07:34:34.034Z,45.57
2022-08-26T07:37:02.043Z,45.90
2022-08-26T07:39:31.641Z,49.80
2022-08-26T07:42:07.564Z,48.73
2022-08-26T07:44:37.263Z,44.03
2022-08-26T07:47:04.276Z,48.40
2022-08-26T07:49:38.250Z,46.97
2022-08-26T07:52:06.144Z,44.53
2022-08-26T07:54:33.382Z,45.87
2022-08-26T07:57:01.227Z,47.43
2022-08-26T07:59:32.164Z,46.07
2022-08-26T08:02:01.283Z,47.33
2022-08-26T08:04:28.415Z,44.67
2022-08-26T08:06:55.990Z,45.17
2022-08-26T08:09:24.570Z,44.33
2022-08-26T08:11:53.053Z,43.00
2022-08-26T08:14:22.317Z,45.27
2022-08-26T08:16:53.603Z,42.10
2022-08-26T08:19:23.155Z,43.73
2022-08-26T08:21:51.017Z,43.90
2022-08-26T08:24:18.693Z,44.93
2022-08-26T08:26:46.018Z,45.57
2022-08-26T08:29:13.737Z,44.10
2022-08-26T08:31:57.935Z,44.22
2022-08-26T08:34:28.961Z,43.28
2022-08-26T08:36:57.535Z,44.45
2022-08-26T08:39:26.246Z,45.15
2022-08-26T08:42:45.238Z,42.57
2022-08-26T08:45:36.570Z,42.47
2022-08-26T08:48:15.627Z,41.35
2022-08-26T08:50:50.489Z,44.92
2022-08-26T08:53:41.647Z,42.55
2022-08-26T08:56:30.881Z,43.38
2022-08-26T08:59:11.749Z,43.33
2022-08-26T09:02:05.713Z,42.35
2022-08-26T09:05:08.887Z,42.95
2022-08-26T09:07:53.528Z,41.55
2022-08-26T09:10:52.893Z,40.35
2022-08-26T09:13:26.120Z,41.70
2022-08-26T09:16:15.662Z,41.13
2022-08-26T09:18:52.070Z,40.40
2022-08-26T09:21:23.624Z,40.15
2022-08-26T09:23:56.684Z,40.47
2022-08-26T09:26:41.122Z,38.05
2022-08-26T09:29:27.146Z,38.90
2022-08-26T09:32:21.296Z,38.67
2022-08-26T09:35:00.179Z,38.78
2022-08-26T09:40:35.787Z,38.80
2022-08-26T09:43:11.336Z,38.45
2022-08-26T09:45:41.576Z,37.08
2022-08-26T09:48:36.376Z,37.92
2022-08-26T09:51:32.713Z,38.65
2022-08-26T09:54:03.868Z,38.08
2022-08-26T09:56:39.686Z,38.75
2022-08-26T09:59:12.000Z,37.65
2022-08-26T10:01:43.706Z,35.92
2022-08-26T10:04:22.925Z,36.42
2022-08-26T10:07:08.168Z,35.45
2022-08-26T10:09:42.986Z,37.40
2022-08-26T10:12:17.831Z,38.17
2022-08-26T10:15:01.420Z,35.78
2022-08-26T10:17:39.630Z,35.28
2022-08-26T10:20:34.875Z,34.40
2022-08-26T10:23:17.916Z,35.28
2022-08-26T10:26:02.922Z,35.78
2022-08-26T10:28:56.872Z,35.72
2022-08-26T10:31:51.424Z,36.17
2022-08-26T10:34:21.216Z,34.38
2022-08-26T10:37:14.151Z,34.42
2022-08-26T10:39:59.247Z,36.35
2022-08-26T10:42:37.624Z,33.15
2022-08-26T10:45:16.908Z,33.47
2022-08-26T10:47:57.427Z,31.40
2022-08-26T10:50:32.696Z,33.33
2022-08-26T10:53:17.602Z,34.17
2022-08-26T10:56:15.660Z,31.33
2022-08-26T10:59:01.138Z,32.97
2022-08-26T11:01:43.261Z,32.85
2022-08-26T11:04:23.734Z,32.17
2022-08-26T11:07:32.974Z,31.75
2022-08-26T11:10:31.785Z,30.92
2022-08-26T11:13:08.075Z,31.80
2022-08-26T11:15:40.734Z,31.15
2022-08-26T11:18:37.978Z,31.77
2022-08-26T11:21:47.711Z,30.10
2022-08-26T11:24:46.333Z,27.30
2022-08-26T11:27:25.974Z,31.95
2022-08-26T11:30:04.836Z,30.20
2022-08-26T11:32:38.063Z,29.90
2022-08-26T11:35:19.331Z,28.38
2022-08-26T11:37:58.354Z,27.25
2022-08-26T11:40:33.761Z,28.52
2022-08-26T11:43:32.951Z,27.77
2022-08-26T11:46:10.453Z,27.35
2022-08-26T11:48:43.835Z,28.75
2022-08-26T11:51:20.859Z,28.80
2022-08-26T11:53:48.657Z,26.85
2022-08-26T11:56:32.421Z,27.33
2022-08-26T11:59:07.011Z,29.08
2022-08-26T12:01:39.801Z,27.83
2022-08-26T12:04:12.375Z,27.05
2022-08-26T12:06:52.304Z,27.52
2022-08-26T12:09:34.518Z,29.58
2022-08-26T12:12:26.569Z,30.15
2022-08-26T12:15:21.880Z,29.40
2022-08-26T12:17:54.415Z,29.55
2022-08-26T12:20:54.425Z,30.85
2022-08-26T12:23:42.243Z,30.17
2022-08-26T12:26:37.780Z,31.33
2022-08-26T12:29:26.512Z,28.50
2022-08-26T12:32:13.056Z,30.13
2022-08-26T12:34:47.164Z,31.13
2022-08-26T12:37:15.428Z,28.67
2022-08-26T12:39:44.840Z,31.67
2022-08-26T12:42:17.498Z,32.10
2022-08-26T12:45:00.969Z,29.02
2022-08-26T12:47:42.847Z,30.00
2022-08-26T12:50:24.283Z,29.35
2022-08-26T12:52:57.564Z,27.38
2022-08-26T12:55:44.098Z,28.10
2022-08-26T12:58:26.128Z,29.05
2022-08-26T13:01:06.597Z,30.42
2022-08-26T13:03:44.461Z,31.55
2022-08-26T13:06:15.710Z,31.52
2022-08-26T13:09:09.296Z,32.20
2022-08-26T13:11:39.240Z,32.20
2022-08-26T13:14:12.918Z,31.90
2022-08-26T13:16:51.880Z,30.83
2022-08-26T13:19:23.356Z,28.95
2022-08-26T13:21:53.979Z,32.33
2022-08-26T13:24:33.519Z,28.35
2022-08-26T13:27:02.103Z,28.83
2022-08-26T13:29:29.296Z,27.13
2022-08-26T13:31:59.168Z,24.10
2022-08-26T13:34:27.064Z,24.55
2022-08-26T13:36:56.232Z,22.08
2022-08-26T13:39:26.354Z,21.25
2022-08-26T13:41:54.331Z,20.52
2022-08-26T13:44:21.688Z,22.13
2022-08-26T13:46:48.998Z,19.15
2022-08-26T13:49:16.180Z,17.90
2022-08-26T13:51:43.177Z,19.20
2022-08-26T13:54:10.300Z,16.02
2022-08-26T13:56:37.502Z,15.38
2022-08-26T13:59:05.675Z,14.52
2022-08-26T14:01:35.540Z,14.38
2022-08-26T14:04:03.319Z,14.82
2022-08-26T14:06:30.347Z,14.25
2022-08-26T14:08:57.745Z,14.52
2022-08-26T14:11:25.047Z,15.13
2022-08-26T14:13:52.344Z,13.60
2022-08-26T14:16:34.311Z,15.15
2022-08-26T14:19:02.315Z,14.55
2022-08-26T14:21:36.804Z,14.38
2022-08-26T14:24:06.159Z,14.57
2022-08-26T14:26:33.306Z,15.98
2022-08-26T14:29:03.733Z,16.30
2022-08-26T14:31:33.019Z,15.75
2022-08-26T14:34:08.039Z,15.10
2022-08-26T14:36:35.479Z,15.75
2022-08-26T14:39:11.181Z,15.35
2022-08-26T14:41:55.132Z,14.05
2022-08-26T14:44:28.144Z,14.63
2022-08-26T14:46:55.705Z,17.80
2022-08-26T14:49:25.132Z,15.50
2022-08-26T14:51:52.255Z,84.05
2022-08-26T14:54:21.397Z,164.43
2022-08-26T14:56:52.569Z,578.47
2022-08-26T14:59:31.390Z,209.93
2022-08-26T15:01:58.844Z,127.88
2022-08-26T15:04:26.177Z,289.77
2022-08-26T15:06:56.826Z,193.35
2022-08-26T15:09:25.617Z,115.32
2022-08-26T15:11:53.202Z,124.25
2022-08-26T15:14:21.968Z,702.58
2022-08-26T15:16:58.368Z,306.20
2022-08-26T15:19:27.011Z,101.15
2022-08-26T15:21:54.001Z,50.47
2022-08-26T15:24:25.048Z,48.25
2022-08-26T15:26:52.972Z,22.17
2022-08-26T15:29:21.575Z,38.67
2022-08-26T15:31:49.133Z,36.35
2022-08-26T15:34:17.134Z,43.97
2022-08-26T15:36:46.713Z,36.10
2022-08-26T15:39:15.991Z,28.70
2022-08-26T15:41:43.324Z,22.02
2022-08-26T15:44:12.204Z,15.63
2022-08-26T15:46:39.799Z,13.45
2022-08-26T15:49:07.430Z,13.98
2022-08-26T15:51:45.926Z,14.48
2022-08-26T15:54:16.562Z,13.30
2022-08-26T15:56:45.375Z,12.63
2022-08-26T15:59:14.738Z,12.55
2022-08-26T16:01:43.696Z,12.45
2022-08-26T16:04:11.429Z,11.75
2022-08-26T16:06:41.164Z,12.95
2022-08-26T16:09:08.579Z,13.10
2022-08-26T16:11:37.280Z,13.35
2022-08-26T16:14:05.910Z,12.68
2022-08-26T16:16:33.090Z,12.73
2022-08-26T16:19:04.297Z,13.13
2022-08-26T16:21:34.277Z,14.15
2022-08-26T16:24:01.568Z,13.68
2022-08-26T16:26:32.811Z,13.90
2022-08-26T16:29:03.406Z,13.07
2022-08-26T16:31:30.518Z,11.95
2022-08-26T16:33:57.836Z,13.48
2022-08-26T16:36:24.774Z,13.73
2022-08-26T16:38:56.032Z,12.57
2022-08-26T16:41:26.370Z,12.02
2022-08-26T16:43:53.938Z,11.30
2022-08-26T16:46:25.387Z,12.18
2022-08-26T16:48:54.557Z,12.20
2022-08-26T16:51:26.809Z,12.23
2022-08-26T16:53:55.808Z,11.40
2022-08-26T16:56:27.737Z,11.95
2022-08-26T16:59:07.054Z,11.00
2022-08-26T17:01:34.601Z,11.60
2022-08-26T17:04:01.633Z,11.68
2022-08-26T17:06:28.746Z,10.65
2022-08-26T17:08:55.806Z,11.52
2022-08-26T17:11:22.848Z,12.10
2022-08-26T17:13:49.799Z,10.23
2022-08-26T17:16:16.878Z,11.10
2022-08-26T17:18:44.125Z,9.65
2022-08-26T17:21:13.372Z,11.35
2022-08-26T17:23:42.881Z,10.32
2022-08-26T17:26:12.322Z,11.70
2022-08-26T17:28:40.287Z,10.57
2022-08-26T17:31:10.802Z,10.00
2022-08-26T17:33:39.101Z,11.90
2022-08-26T17:36:08.716Z,9.43
2022-08-26T17:38:37.640Z,9.88
2022-08-26T17:41:09.953Z,9.60
2022-08-26T17:43:38.267Z,9.88
2022-08-26T17:46:08.401Z,8.82
2022-08-26T17:48:40.681Z,8.60
2022-08-26T17:51:15.308Z,8.90
2022-08-26T17:53:43.385Z,8.80
2022-08-26T17:56:14.230Z,7.93
2022-08-26T17:58:50.936Z,8.93
2022-08-26T18:01:20.728Z,8.13
2022-08-26T18:03:49.042Z,8.60
2022-08-26T18:06:16.312Z,8.32
2022-08-26T18:08:43.902Z,8.20
2022-08-26T18:11:15.016Z,7.60
2022-08-26T18:13:47.184Z,6.67
2022-08-26T18:16:17.152Z,7.22
2022-08-26T18:18:44.809Z,5.72
2022-08-26T18:21:18.681Z,6.40
2022-08-26T18:23:47.368Z,6.13
2022-08-26T18:26:32.198Z,6.18
2022-08-26T18:29:00.539Z,5.80
2022-08-26T18:31:28.845Z,5.65
2022-08-26T18:33:56.082Z,6.38
2022-08-26T18:36:28.121Z,6.80
2022-08-26T18:38:56.434Z,6.73
2022-08-26T18:41:26.286Z,6.20
2022-08-26T18:43:55.002Z,6.72
2022-08-26T18:46:25.384Z,6.43
2022-08-26T18:48:55.771Z,6.83
2022-08-26T18:51:32.881Z,6.63
2022-08-26T18:54:04.357Z,6.93
2022-08-26T18:56:35.245Z,7.13
2022-08-26T18:59:03.486Z,6.53
2022-08-26T19:01:31.917Z,6.17
2022-08-26T19:04:01.373Z,5.27
2022-08-26T19:06:32.727Z,6.20
2022-08-26T19:09:00.359Z,6.23
2022-08-26T19:11:32.428Z,6.07
2022-08-26T19:14:08.931Z,6.33
2022-08-26T19:16:37.302Z,6.97
2022-08-26T19:19:05.320Z,6.97
2022-08-26T19:21:35.224Z,7.17
2022-08-26T19:24:07.100Z,7.20
2022-08-26T19:26:35.197Z,7.77
2022-08-26T19:29:02.281Z,6.17
2022-08-26T19:31:29.487Z,7.03
2022-08-26T19:33:57.888Z,6.50
2022-08-26T19:36:27.751Z,7.43
2022-08-26T19:38:56.429Z,6.23
2022-08-26T19:41:37.594Z,6.90
2022-08-26T19:44:10.384Z,6.80
2022-08-26T19:49:06.605Z,6.87
2022-08-26T19:51:35.254Z,7.00
2022-08-26T19:54:04.173Z,7.17
2022-08-26T19:56:31.128Z,8.07
2022-08-26T19:58:58.273Z,6.50
2022-08-26T20:01:25.563Z,6.73
2022-08-26T20:03:52.998Z,7.47
2022-08-26T20:06:20.537Z,7.20
2022-08-26T20:08:48.155Z,7.47
2022-08-26T20:11:18.934Z,6.60
2022-08-26T20:13:47.580Z,6.50
2022-08-26T20:16:16.941Z,6.17
2022-08-26T20:19:11.702Z,7.37
2022-08-26T20:21:41.354Z,7.67
2022-08-26T20:24:15.738Z,7.97
2022-08-26T20:26:44.729Z,8.40
2022-08-26T20:29:15.747Z,7.53
2022-08-26T20:31:44.619Z,8.93
2022-08-26T20:34:14.520Z,8.53
2022-08-26T20:36:42.586Z,7.80
2022-08-26T20:39:10.826Z,8.73
2022-08-26T20:41:38.899Z,8.03
2022-08-26T20:44:06.163Z,7.97
2022-08-26T20:46:34.668Z,8.47
2022-08-26T20:49:02.168Z,7.50
2022-08-26T20:51:34.260Z,7.87
2022-08-26T20:54:01.376Z,9.27
2022-08-26T20:56:28.512Z,9.33
2022-08-26T20:58:59.576Z,9.90
2022-08-26T21:01:34.016Z,10.27
2022-08-26T21:04:08.552Z,9.70
2022-08-26T21:06:36.493Z,10.60
2022-08-26T21:09:07.320Z,10.93
2022-08-26T21:11:36.539Z,10.17
2022-08-26T21:14:15.720Z,10.53
2022-08-26T21:16:44.846Z,10.37
2022-08-26T21:19:15.907Z,11.27
2022-08-26T21:21:44.812Z,10.10
2022-08-26T21:24:12.152Z,9.97
2022-08-26T21:26:40.136Z,10.40
2022-08-26T21:29:09.808Z,10.40
2022-08-26T21:31:44.942Z,10.17
2022-08-26T21:34:16.762Z,9.60
2022-08-26T21:36:47.856Z,9.73
2022-08-26T21:39:15.671Z,10.07
2022-08-26T21:41:44.724Z,10.33
2022-08-26T21:44:13.777Z,11.40
2022-08-26T21:46:42.375Z,10.03
2022-08-26T21:49:12.679Z,9.83
2022-08-26T21:51:44.125Z,10.40
2022-08-26T21:54:13.121Z,11.87
2022-08-26T21:56:46.519Z,11.10
2022-08-26T21:59:18.602Z,10.83
2022-08-26T22:01:46.029Z,11.07
2022-08-26T22:04:13.463Z,10.37
2022-08-26T22:06:50.706Z,10.23
2022-08-26T22:09:22.843Z,9.53
2022-08-26T22:11:50.667Z,10.53
2022-08-26T22:14:30.201Z,10.90
2022-08-26T22:16:59.379Z,10.53
2022-08-26T22:19:26.650Z,9.20
2022-08-26T22:21:55.948Z,10.47
2022-08-26T22:24:26.401Z,11.20
2022-08-26T22:26:54.669Z,11.30
2022-08-26T22:29:21.653Z,11.83
2022-08-26T22:31:48.710Z,12.33
2022-08-26T22:34:17.350Z,11.13
2022-08-26T22:36:48.110Z,12.20
2022-08-26T22:39:19.980Z,11.63
2022-08-26T22:41:48.704Z,11.27
2022-08-26T22:44:17.980Z,11.07
2022-08-26T22:46:46.128Z,11.43
2022-08-26T22:49:18.297Z,11.53
2022-08-26T22:51:46.793Z,10.63
2022-08-26T22:54:15.057Z,10.13
2022-08-26T22:56:43.485Z,10.47
2022-08-26T22:59:12.444Z,9.37
2022-08-26T23:01:43.146Z,9.27
2022-08-26T23:04:11.634Z,8.80
2022-08-26T23:06:43.178Z,9.83
2022-08-26T23:09:16.749Z,7.97
2022-08-26T23:11:46.228Z,8.13
2022-08-26T23:14:13.405Z,7.87
2022-08-26T23:16:41.590Z,8.03
2022-08-26T23:19:13.230Z,6.53
2022-08-26T23:21:42.732Z,7.80
2022-08-26T23:24:11.215Z,8.53
2022-08-26T23:26:41.257Z,7.63
2022-08-26T23:29:12.457Z,7.10
2022-08-26T23:31:41.895Z,7.00
2022-08-26T23:34:27.216Z,6.37
2022-08-26T23:36:56.880Z,6.00
2022-08-26T23:39:25.475Z,7.43
2022-08-26T23:41:52.474Z,5.93
2022-08-26T23:44:20.628Z,6.77
2022-08-26T23:46:47.621Z,5.93
2022-08-26T23:49:14.704Z,6.23
2022-08-26T23:52:00.037Z,5.73
2022-08-26T23:54:27.191Z,6.87
2022-08-26T23:56:54.073Z,5.20
2022-08-26T23:59:21.202Z,6.47
